Flight Track Log - Related Links

Times and Time Zones

All times are in EDT time to prevent confusion due to time zone crossing. See the N173DS flight status page for this flight to view local times or setup timezone preferences in your user account.

Time Position Orientation Groundspeed Altitude Reporting Facility
EDT Latitude Longitude Course Direction KTS MPH feet Rate Location/Type
Sun 12:59:20 PM 28.5500 -81.3167 49° Northeast 151 174 800  Level Orlando TRACON
Sun 01:00:32 PM 28.6000 -81.2500 49° Northeast 226 260 1,500 1,039 Climbing Orlando TRACON
Sun 01:01:27 PM 28.6333 -81.2000 53° Northeast 219 252 3,000 2,191 Climbing Orlando TRACON
Sun 01:02:27 PM 28.6833 -81.2000 360° North 236 272 5,700 2,793 Climbing Orlando TRACON
Sun 01:03:23 PM 28.7467 -81.2397 331° Northwest 253 291 8,400 3,052 Climbing Jacksonville Center
Sun 01:04:23 PM 28.8097 -81.2861 327° Northwest 283 326 11,600 3,400 Climbing Jacksonville Center
Sun 01:05:23 PM 28.8836 -81.3417 327° Northwest 305 351 15,200 2,300 Climbing Jacksonville Center
Sun 01:06:23 PM 28.9800 -81.3831 339° North 356 410 16,200 2,000 Climbing Jacksonville Center
Sun 01:07:23 PM 29.0908 -81.3931 355° North 395 455 19,200 3,200 Climbing Jacksonville Center
Sun 01:08:23 PM 29.1972 -81.4058 354° North 390 449 22,600 3,000 Climbing Jacksonville Center
Sun 01:09:23 PM 29.3142 -81.4064 360° North 398 458 25,200 2,400 Climbing Jacksonville Center
Sun 01:10:23 PM 29.4314 -81.4189 355° North 414 476 27,400 1,950 Climbing Jacksonville Center
Sun 01:11:23 PM 29.5317 -81.4342 352° North 414 476 29,100 1,750 Climbing Jacksonville Center
Sun 01:12:23 PM 29.6528 -81.4444 356° North 414 476 30,900 1,850 Climbing Jacksonville Center
Sun 01:13:23 PM 29.7742 -81.4544 356° North 426 490 32,800 1,050 Climbing Jacksonville Center
Sun 01:14:23 PM 29.8975 -81.4694 354° North 432 497 33,000 150 Climbing Jacksonville Center
Sun 01:15:23 PM 30.0292 -81.4819 355° North 454 522 33,100 550 Climbing Jacksonville Center
Sun 01:16:23 PM 30.1544 -81.4919 356° North 454 522 34,100 1,450 Climbing Jacksonville Center
Sun 01:17:23 PM 30.2778 -81.5022 356° North 454 522 36,000 1,900 Climbing Jacksonville Center
Sun 01:18:23 PM 30.3967 -81.5078 358° North 441 507 37,900 1,700 Climbing Jacksonville Center
Sun 01:19:23 PM 30.5094 -81.4942 North 420 483 39,400 1,450 Climbing Jacksonville Center
Sun 01:20:23 PM 30.6219 -81.4683 11° North 413 475 40,800 800 Climbing Jacksonville Center
Sun 01:21:23 PM 30.7214 -81.4064 28° Northeast 398 458 41,000 100 Climbing Jacksonville Center
Sun 01:22:23 PM 30.8250 -81.3419 28° Northeast 409 471 41,000  Level Jacksonville Center
Sun 01:23:23 PM 30.9347 -81.2747 28° Northeast 423 487 41,000  Level Jacksonville Center
Sun 01:24:23 PM 31.0406 -81.2075 29° Northeast 430 495 41,000  Level Jacksonville Center
Sun 01:25:23 PM 31.1481 -81.1425 27° Northeast 430 495 41,000  Level Jacksonville Center
Sun 01:26:23 PM 31.2558 -81.0772 27° Northeast 424 488 41,000  Level Jacksonville Center
Sun 01:27:23 PM 31.3736 -81.0019 29° Northeast 429 494 41,000  Level Jacksonville Center
Sun 01:28:23 PM 31.4792 -80.9364 28° Northeast 429 494 41,000  Level Jacksonville Center
Sun 01:29:23 PM 31.5867 -80.8683 28° Northeast 429 494 41,000  Level Jacksonville Center
Sun 01:30:23 PM 31.6942 -80.8025 28° Northeast 429 494 41,000  Level Jacksonville Center
Sun 01:31:23 PM 31.7914 -80.7417 28° Northeast 429 494 41,000  Level Jacksonville Center
Sun 01:32:23 PM 31.9089 -80.6656 29° Northeast 429 494 41,000  Level Jacksonville Center
Sun 01:33:23 PM 32.0142 -80.5992 28° Northeast 429 494 41,000  Level Jacksonville Center
Sun 01:34:23 PM 32.1236 -80.5353 26° Northeast 429 494 41,000  Level Jacksonville Center
Sun 01:35:23 PM 32.2267 -80.4639 30° Northeast 429 494 41,000  Level Jacksonville Center
Sun 01:36:23 PM 32.3361 -80.3944 28° Northeast 429 494 41,000  Level Jacksonville Center
Sun 01:37:23 PM 32.4433 -80.3275 28° Northeast 429 494 41,000  Level Jacksonville Center
Sun 01:38:23 PM 32.5503 -80.2581 29° Northeast 429 494 41,000  Level Jacksonville Center
Sun 01:39:23 PM 32.6489 -80.1736 36° Northeast 429 494 41,000  Level Jacksonville Center
Sun 01:40:23 PM 32.7431 -80.0869 38° Northeast 429 494 41,000  Level Jacksonville Center
Sun 01:41:23 PM 32.8392 -80.0022 37° Northeast 429 494 41,000  Level Jacksonville Center
Sun 01:42:23 PM 32.9372 -79.9175 36° Northeast 429 494 41,000  Level Jacksonville Center
Sun 01:43:23 PM 33.0356 -79.8300 37° Northeast 429 494 41,000  Level Jacksonville Center
Sun 01:44:23 PM 33.1314 -79.7475 36° Northeast 429 494 41,000  Level Jacksonville Center
Sun 01:45:23 PM 33.2294 -79.6594 37° Northeast 429 494 41,000  Level Jacksonville Center
Sun 01:46:23 PM 33.3275 -79.5739 36° Northeast 429 494 41,000  Level Jacksonville Center
Sun 01:47:23 PM 33.4231 -79.4858 38° Northeast 429 494 41,000  Level Jacksonville Center
Sun 01:48:23 PM 33.5189 -79.3997 37° Northeast 429 494 41,000  Level Jacksonville Center
Sun 01:50:23 PM 33.6947 -79.2406 37° Northeast 419 482 41,000  Level Washington Center
Sun 01:51:23 PM 33.7892 -79.1547 37° Northeast 424 488 41,000  Level Washington Center
Sun 01:52:24 PM 33.8878 -79.0689 36° Northeast 424 488 41,000  Level Washington Center
Sun 01:53:22 PM 33.9839 -78.9828 37° Northeast 424 488 41,000  Level Washington Center
Sun 01:54:23 PM 34.0783 -78.8964 37° Northeast 424 488 41,000  Level Washington Center
Sun 01:55:24 PM 34.1767 -78.8100 36° Northeast 424 488 41,000  Level Washington Center
Sun 01:56:25 PM 34.2706 -78.7231 37° Northeast 424 488 41,000  Level Washington Center
Sun 01:57:25 PM 34.3647 -78.6336 38° Northeast 424 488 41,000  Level Washington Center
Sun 01:58:23 PM 34.4628 -78.5467 36° Northeast 429 494 41,000  Level Washington Center
Sun 01:59:25 PM 34.5569 -78.4492 40° Northeast 429 494 41,000  Level Washington Center
Sun 02:00:22 PM 34.6550 -78.3692 34° Northeast 434 499 41,000  Level Washington Center
Sun 02:01:23 PM 34.7508 -78.2792 38° Northeast 429 494 41,000  Level Washington Center
Sun 02:02:24 PM 34.8492 -78.1736 41° Northeast 429 494 41,000  Level Washington Center
Sun 02:03:24 PM 34.9492 -78.0828 37° Northeast 429 494 41,000  Level Washington Center
Sun 02:04:23 PM 35.0450 -77.9919 38° Northeast 429 494 41,000  Level Washington Center
Sun 02:05:24 PM 35.1383 -77.9058 37° Northeast 429 494 41,000  Level Washington Center
Sun 02:06:24 PM 35.2342 -77.8119 39° Northeast 429 494 41,000  Level Washington Center
Sun 02:07:25 PM 35.3317 -77.7256 36° Northeast 429 494 41,000  Level Washington Center
Sun 02:08:24 PM 35.4250 -77.6364 38° Northeast 429 494 41,000  Level Washington Center
Sun 02:09:24 PM 35.5225 -77.5444 37° Northeast 424 488 41,000  Level Washington Center
Sun 02:10:25 PM 35.6158 -77.4547 38° Northeast 429 494 41,000  Level Washington Center
Sun 02:11:25 PM 35.7089 -77.3647 38° Northeast 429 494 41,000  Level Washington Center
Sun 02:12:22 PM 35.8042 -77.2747 37° Northeast 429 494 41,000  Level Washington Center
Sun 02:13:23 PM 35.8992 -77.1869 37° Northeast 429 494 41,000  Level Washington Center
Sun 02:14:24 PM 35.9817 -77.0961 42° Northeast 420 483 41,000  Level Washington Center
Sun 02:15:24 PM 36.0767 -77.0056 38° Northeast 415 478 41,000  Level Washington Center
Sun 02:16:25 PM 36.1697 -76.9169 38° Northeast 415 478 41,000  Level Washington Center
Sun 02:17:24 PM 36.2583 -76.8258 40° Northeast 415 478 41,000  Level Washington Center
Sun 02:18:24 PM 36.3489 -76.7394 38° Northeast 415 478 41,000  Level Washington Center
Sun 02:19:23 PM 36.4372 -76.6531 38° Northeast 408 470 41,000  Level Washington Center
Sun 02:20:23 PM 36.5256 -76.5664 38° Northeast 400 460 41,000  Level Washington Center
Sun 02:21:23 PM 36.6158 -76.4794 38° Northeast 400 460 41,000  Level Washington Center
Sun 02:22:25 PM 36.7061 -76.3925 38° Northeast 406 467 41,000  Level Washington Center
Sun 02:23:25 PM 36.7944 -76.2947 42° Northeast 406 467 41,000  Level Washington Center
Sun 02:24:23 PM 36.8908 -76.2125 34° Northeast 412 474 41,000  Level Washington Center
Sun 02:25:24 PM 36.9747 -76.1614 26° Northeast 412 474 41,000  Level Washington Center
Sun 02:26:25 PM 37.1064 -76.0814 26° Northeast 421 484 41,000  Level Washington Center
Sun 02:27:25 PM 37.2089 -76.0117 28° Northeast 421 484 41,000  Level Washington Center
Sun 02:28:23 PM 37.3133 -75.9417 28° Northeast 416 479 41,000  Level Washington Center
Sun 02:29:24 PM 37.4178 -75.8717 28° Northeast 411 473 41,000  Level Washington Center
Sun 02:30:24 PM 37.5203 -75.8014 29° Northeast 411 473 41,000  Level Washington Center
Sun 02:31:25 PM 37.6036 -75.7439 29° Northeast 411 473 41,000  Level Washington Center
Sun 02:32:23 PM 37.7269 -75.6600 28° Northeast 419 482 41,000  Level Washington Center
Sun 02:33:23 PM 37.8164 -75.5969 29° Northeast 414 476 41,000  Level Washington Center
Sun 02:34:25 PM 37.9208 -75.5339 25° Northeast 414 476 41,000  Level Washington Center
Sun 02:35:22 PM 38.0228 -75.4572 31° Northeast 414 476 41,000  Level Washington Center
Sun 02:36:23 PM 38.1269 -75.3911 27° Northeast 414 476 41,000  Level Washington Center
Sun 02:37:24 PM 38.2292 -75.3194 29° Northeast 414 476 41,000  Level Washington Center
Sun 02:38:24 PM 38.3394 -75.2344 31° Northeast 414 476 41,000  Level Washington Center
Sun 02:39:23 PM 38.4433 -75.1622 29° Northeast 419 482 41,000  Level Washington Center
Sun 02:40:23 PM 38.5475 -75.0953 27° Northeast 419 482 41,000  Level Washington Center
Sun 02:41:25 PM 38.6514 -75.0256 28° Northeast 412 474 41,000  Level Washington Center
Sun 02:42:22 PM 38.7553 -74.9500 30° Northeast 412 474 41,000  Level Washington Center
Sun 02:43:23 PM 38.8589 -74.8744 30° Northeast 412 474 41,000  Level Washington Center
Sun 02:44:24 PM 38.9606 -74.8042 28° Northeast 412 474 41,000  Level Washington Center
Sun 02:45:25 PM 39.0622 -74.7281 30° Northeast 412 474 41,000  Level Washington Center
Sun 02:46:22 PM 39.1639 -74.6572 28° Northeast 412 474 41,000  Level Washington Center
Sun 02:47:24 PM 39.2653 -74.5836 29° Northeast 412 474 41,000  Level Washington Center
Sun 02:48:24 PM 39.3669 -74.5125 28° Northeast 412 474 41,000  Level Washington Center
Sun 02:49:24 PM 39.4642 -74.4411 30° Northeast 412 474 41,000 -803 Level Washington Center
Sun 02:50:46 PM 39.5925 -74.3483 29° Northeast 405 466 39,100 -1,901 Descending New York Center
Sun 02:51:46 PM 39.6906 -74.2781 29° Northeast 400 460 36,500 -2,650 Descending New York Center
Sun 02:52:46 PM 39.7906 -74.2047 29° Northeast 406 467 33,800 -2,700 Descending New York Center
Sun 02:53:46 PM 39.8969 -74.1286 29° Northeast 425 489 31,100 -2,950 Descending New York Center
Sun 02:54:46 PM 40.0056 -74.0472 30° Northeast 431 496 27,900 -3,000 Descending New York Center
Sun 02:55:46 PM 40.1144 -73.9572 32° Northeast 450 518 25,100 -1,450 Descending New York Center
Sun 02:56:46 PM 40.2128 -73.8586 37° Northeast 450 518 25,000 -50 Descending New York Center
Sun 02:57:46 PM 40.3194 -73.7628 34° Northeast 455 524 25,000  Level New York Center
Sun 02:58:46 PM 40.4200 -73.6661 36° Northeast 455 524 25,000 -1,188 Level New York Center
Sun 03:01:03 PM 40.6342 -73.4578 36° Northeast 432 497 21,100 -1,697 Descending Boston Center
Sun 03:02:04 PM 40.7403 -73.3542 36° Northeast 406 467 19,400 -1,041 Descending Boston Center
Sun 03:03:04 PM 40.8289 -73.2642 38° Northeast 401 461 19,000 -341 Descending Boston Center
Sun 03:04:07 PM 40.9158 -73.1581 43° Northeast 419 482 18,700 -919 Descending Boston Center
Sun 03:05:08 PM 41.0031 -73.0581 41° Northeast 416 479 17,100 -1,721 Descending Boston Center
Sun 03:06:09 PM 41.0869 -72.9611 41° Northeast 402 463 15,200 -1,864 Descending Boston Center
Sun 03:06:51 PM 41.1450 -72.8922 42° Northeast 388 447 13,900 -1,810 Descending Boston Center
Sun 03:07:12 PM 41.1681 -72.8650 42° Northeast 392 451 13,300 -1,875 Descending Boston Center
Sun 03:07:55 PM 41.2283 -72.7906 43° Northeast 377 434 11,900 -1,672 Descending Boston Center
Sun 03:08:13 PM 41.2456 -72.7719 39° Northeast 376 433 11,600 -857 Descending Boston Center
Sun 03:09:05 PM 41.3178 -72.7222 27° Northeast 318 366 10,900 -906 Descending Boston Center
Sun 03:09:59 PM 41.3922 -72.7489 345° North 281 323 10,000 -750 Descending Boston Center
Sun 03:10:17 PM 41.4169 -72.7575 345° North 296 341 10,000 -333 Level Boston Center
Sun 03:10:53 PM 41.4622 -72.7653 353° North 273 314 9,700 -900 Descending Boston Center
Sun 03:11:17 PM 41.4947 -72.7675 357° North 284 327 9,100 -1,522 Descending Boston Center
Sun 03:12:00 PM 41.5508 -72.7653 North 289 333 8,000 -1,500 Descending Boston Center
Sun 03:12:21 PM 41.5728 -72.7658 359° North 281 323 7,500 -1,700 Descending Boston Center
Sun 03:13:00 PM 41.6261 -72.7664 360° North 258 297 6,300 -1,900 Descending Boston Center
Sun 03:13:21 PM 41.6508 -72.7675 358° North 266 306 5,600 -2,066 Descending Boston Center
Sun 03:14:01 PM 41.6989 -72.7694 358° North 255 293 4,200 -1,875 Descending Boston Center
Sun 03:14:25 PM 41.7222 -72.7692 North 261 300 3,600 -1,180 Descending Boston Center
Sun 03:15:02 PM 41.7675 -72.7711 358° North 235 270 3,000 -590 Descending Boston Center
Sun 03:15:26 PM 41.7925 -72.7706 North 235 270 3,000 -111 Level Boston Center
Sun 03:15:56 PM 41.8167 -72.7744 353° North 193 222 2,900 -787 Descending Boston Center
Sun 03:16:27 PM 41.8408 -72.7778 354° North 176 203 2,200 -985 Descending Boston Center
Sun 03:17:03 PM 41.8647 -72.7714 11° North 136 157 1,800 -571 Descending Boston Center
Sun 03:17:30 PM 41.8797 -72.7642 20° North 150 173 1,600 -545 Descending Boston Center
Sun 03:17:58 PM 41.8939 -72.7444 46° Northeast 133 153 1,300 -787 Descending Boston Center
Sun 03:18:31 PM 41.9094 -72.7269 40° Northeast 140 161 800 -762 Descending Boston Center
Sun 03:19:01 PM 41.9200 -72.7106 49° Northeast 133 153 500 -600 Descending Boston Center
Sun 03:19:31 PM 41.9350 -72.6931 41° Northeast 134 154 200 -600 Descending Boston Center
Sun 03:21:00 PM 41.9333 -72.6833 45° Northeast  Level FlightAware Approximate
Sun 03:28:00 PM 41.9392 -72.6834 45° Northeast  Level Estimated
Sun 03:29:00 PM 41.9333 -72.6833 45° Northeast  Level FlightAware Approximate

Login

Don't have an account? Register now (free) for customized features, flight alerts, and more!